Desborough, United Kingdom
Current Conditions -  °F | °C
As of 10:50 AM on Saturday 27 Dec 2014 (Local Time) from EGXT Reporting Station
Broken Clouds Broken Clouds  
Wind Chill: 27°   Ceiling: 1400
Heat Index: 36°   Visibility: 6mi
Dew Point: 32°   Wind: 14mph
Humidity: 87%   Direction: 320°NW
Pressure: 29.77"   Gusts: NA
Location:  52.44°N, 0.82°W
Report Text: EGXT 271050Z AUTO 32012KT 9999 BKN014/// 02/00 Q1008
Loading
Personal Weather Stations






























Interactive Weather Map New forecast layout! Learn more

10-Day Weather Forecast

Advertisements
Track Severe Weather on mobile